Colfax, North Dakota
Current Conditions -  °F | °C
As of 5:35 PM on Saturday 22 Nov 2014 (Local Time) from KBWP Reporting Station
Overcast Overcast  
Wind Chill: 20°   Ceiling: 300
Heat Index: 32°   Visibility: 2mi
Dew Point: 32°   Wind: 20mph
Humidity: 100%   Direction: 160°SSE
Pressure: 29.47"   Gusts: 26mph
Location:  46.47°N, 96.87°W
Report Text: KBWP 222335Z AUTO 16017G23KT 2SM OVC003 00/00 A2947 RMK AO1
Loading
Personal Weather Stations






























Interactive Weather Map New forecast layout! Learn more

10-Day Weather Forecast

Advertisements
Track Severe Weather on mobile